Weather at Atoka Municipal Airport

Public forecast

Using degrees Fahrenheit for public forecast. Weather courtesy of forecast.io.

Current aviation weather report (METAR) for Atoka Municipal Airport

Retrieved 2020/12/03 10:35 UTC (0 seconds ago):

KAQR 031035Z AUTO RMK AO2 PWINO TSNO

Closest aviation forecast (TAF) to Atoka Municipal Airport

Closest forecast is Mc Alester Regional Airport, 34.2 nm (63.3 km) NNE. Retrieved 2020/12/03 06:22 UTC (4 hours ago):

TAF KMLC 030520Z 0306/0406 08004KT P6SM OVC009 TEMPO 0309/0312 4SM -DZ BR OVC004 FM031800 33006KT P6SM BKN012